Αρχική σελίδα
METAR-TAF:

METAR-TAF

Αεροδρόμια :

Κουρασάο, Ολλανδικές Αντίλλες

γεωγραφικό πλάτος: 12-12N, γεωγραφικό μήκος: 068-58W, υψόμετρο: 9 μ

Παρών καιρός

Η αναφορά έγινε 3 ώρες και 7 λεπτά πριν, στις 20:00 UTC
Άνεμος 14 kt από Α
Θερμοκρασία 31°C
Υγρασία 59%
Πίεση 1010 hPa
Ορατότητα 10 χλμ και άνω
Αρκετά νέφη σε ύψος 2500 πόδια

METAR: TNCC 252000Z AUTO 10014KT 9999 BKN025 31/22 Q1010 NOSIG

Χρόνος: 19:07 (23:07 UTC)

Πρόγνωση Καιρού

Η αναφορά έγινε 7 ώρες και 7 λεπτά πριν, στις 16:00 UTC
Η πρόγνωση ισχύει από τις 25 στις 18 UTC έως τις 26 στις 18 UTC
Άνεμος 17 kt από Α/NA
Ορατότητα 10 χλμ και άνω
Διάσπαρτα νέφη σε ύψος 2500 πόδια

TAF: TNCC 251600Z 2518/2618 11017KT 9999 SCT025

Μετεωρολογικές αναφορές και προγνώσεις για περισσότερα από 4000 αεροδρόμια (δελτία METAR και TAF).

Οι διαθέσιμοι σταθμοί απεικονίζονται στο χάρτη με κίτρινες και κόκκινες κουκκίδες.

Μετακινήστε το ποντίκι πάνω από τις κουκκίδες για να δείτε το όνομα του σταθμού.

Στη συνέχεια, κάντε κλικ για να δείτε τις μετεωρολογικές αναφορές και τις προγνώσεις καιρού.

Για να αλλάξετε το χάρτη: κάντε κλικ στα πράσινα κουμπιά με τον μαύρο σταυρό για να ζουμάρετε, στο πράσινο κουμπί με την παύλα για να αφαιρέσετε το ζουμ ή στα πράσινα βέλη για να αντιπαραβάλλετε χάρτες.


METAR-TAF: